createdAt,value
2022-09-06T00:04:59.304Z,76.9
2022-09-06T00:09:59.234Z,76.8
2022-09-06T00:14:59.501Z,77.5
2022-09-06T00:19:59.453Z,79.8
2022-09-06T00:24:59.310Z,76.1
2022-09-06T00:29:59.177Z,75.7
2022-09-06T00:34:59.187Z,77
2022-09-06T00:39:59.273Z,78.2
2022-09-06T00:44:59.187Z,81.1
2022-09-06T00:49:59.494Z,79.6
2022-09-06T00:54:59.799Z,79.8
2022-09-06T00:59:59.484Z,80.3
2022-09-06T01:04:59.077Z,81.8
2022-09-06T01:09:59.297Z,81.5
2022-09-06T01:14:59.207Z,81.2
2022-09-06T01:20:11.554Z,81.9
2022-09-06T01:25:02.706Z,80.7
2022-09-06T01:30:01.280Z,80.6
2022-09-06T01:34:59.448Z,79.5
2022-09-06T01:39:59.210Z,81.7
2022-09-06T01:44:59.091Z,82.2
2022-09-06T01:50:10.339Z,83.1
2022-09-06T01:55:07.666Z,82.8
2022-09-06T01:59:59.454Z,78.2
2022-09-06T02:05:02.666Z,75
2022-09-06T02:09:59.083Z,74.9
2022-09-06T02:14:59.428Z,74.6
2022-09-06T02:19:59.447Z,74.5
2022-09-06T02:24:59.362Z,76.3
2022-09-06T02:29:59.361Z,76.9
2022-09-06T02:35:04.744Z,77.9
2022-09-06T02:39:59.375Z,78.5
2022-09-06T02:44:59.129Z,75.9
2022-09-06T02:49:59.336Z,78.4
2022-09-06T02:54:59.184Z,79.2
2022-09-06T02:59:59.478Z,78.3
2022-09-06T03:04:59.386Z,78.9
2022-09-06T03:09:59.298Z,78.5
2022-09-06T03:14:59.015Z,78.9
2022-09-06T03:19:59.531Z,79.8
2022-09-06T03:24:59.476Z,79.8
2022-09-06T03:29:59.051Z,80.1
2022-09-06T03:34:59.248Z,79.3
2022-09-06T03:39:59.362Z,80.8
2022-09-06T03:44:59.153Z,79.2
2022-09-06T03:49:59.358Z,79.3
2022-09-06T03:54:59.124Z,80.1
2022-09-06T03:59:59.209Z,79.8
2022-09-06T04:04:59.054Z,80.2
2022-09-06T04:09:58.972Z,82.6
2022-09-06T04:14:59.337Z,82.1
2022-09-06T04:19:59.125Z,81.1
2022-09-06T04:24:59.096Z,79.8
2022-09-06T04:29:59.312Z,80.6
2022-09-06T04:34:59.080Z,80.9
2022-09-06T04:39:59.166Z,80.3
2022-09-06T04:44:58.941Z,80.3
2022-09-06T04:49:58.980Z,80.2
2022-09-06T04:54:58.929Z,80.3
2022-09-06T04:59:59.074Z,79.6
2022-09-06T05:04:59.106Z,80.7
2022-09-06T05:09:59.210Z,81.2
2022-09-06T05:14:59.247Z,81.5
2022-09-06T05:19:58.955Z,81.7
2022-09-06T05:24:59.104Z,82.4
2022-09-06T05:29:59.318Z,81.4
2022-09-06T05:34:59.242Z,82.8
2022-09-06T05:39:59.287Z,82.4
2022-09-06T05:44:58.993Z,79.2
2022-09-06T05:49:59.077Z,79.7
2022-09-06T05:54:59.078Z,79.4
2022-09-06T05:59:59.073Z,79.7
2022-09-06T06:04:59.182Z,79.9
2022-09-06T06:09:59.101Z,79.7
2022-09-06T06:14:58.964Z,78.8
2022-09-06T06:19:59.187Z,77.9
2022-09-06T06:24:59.078Z,77.6
2022-09-06T06:29:59.002Z,76.3
2022-09-06T06:34:59.194Z,77.6
2022-09-06T06:39:59.498Z,78
2022-09-06T06:44:59.120Z,77.6
2022-09-06T06:49:58.998Z,77.2
2022-09-06T06:54:59.225Z,77
2022-09-06T06:59:59.035Z,77.1
2022-09-06T07:04:59.128Z,77.1
2022-09-06T07:14:59.080Z,74.7
2022-09-06T07:20:15.005Z,74.6
2022-09-06T07:24:58.763Z,74.7
2022-09-06T07:29:59.122Z,72.4
2022-09-06T07:34:59.395Z,72.3
2022-09-06T07:39:59.221Z,72.5
2022-09-06T07:44:58.936Z,72
2022-09-06T07:54:59.018Z,69.4
2022-09-06T07:59:58.838Z,69.5
2022-09-06T08:04:59.199Z,69.1
2022-09-06T08:09:59.147Z,69.2
2022-09-06T08:14:59.109Z,68.3
2022-09-06T08:19:58.879Z,68.6
2022-09-06T08:24:58.844Z,67.3
2022-09-06T08:29:59.045Z,68
2022-09-06T08:34:59.089Z,66.7
2022-09-06T08:39:58.908Z,65.8
2022-09-06T08:44:59.087Z,65.3
2022-09-06T08:49:59.102Z,63.5
2022-09-06T08:54:58.767Z,65
2022-09-06T09:00:00.990Z,63.4
2022-09-06T09:05:00.349Z,63.2
2022-09-06T09:09:59.903Z,61.4
2022-09-06T09:14:58.917Z,60.5
2022-09-06T09:19:59.069Z,61.2
2022-09-06T09:24:58.959Z,60.5
2022-09-06T09:34:58.843Z,59.2
2022-09-06T09:39:59.683Z,59.7
2022-09-06T09:44:58.663Z,58.6
2022-09-06T09:49:58.958Z,58.4
2022-09-06T09:55:00.301Z,57.2
2022-09-06T09:59:58.689Z,56.5
2022-09-06T10:05:00.765Z,56.9
2022-09-06T10:09:58.837Z,56
2022-09-06T10:15:01.212Z,56
2022-09-06T10:20:00.703Z,56.5
2022-09-06T10:24:58.690Z,56.6
2022-09-06T10:30:01.423Z,57.7
2022-09-06T10:35:04.696Z,57.1
2022-09-06T10:39:58.788Z,57.1
2022-09-06T10:44:58.958Z,56.3
2022-09-06T10:49:58.772Z,55.7
2022-09-06T10:54:58.754Z,54.3
2022-09-06T10:59:58.958Z,54
2022-09-06T11:10:01.659Z,54.9
2022-09-06T11:15:00.347Z,55.1
2022-09-06T11:20:02.808Z,54.6
2022-09-06T11:24:58.938Z,53.9
2022-09-06T11:30:00.440Z,55.5
2022-09-06T11:34:58.728Z,56.4
2022-09-06T11:40:30.655Z,55.8
2022-09-06T11:44:58.595Z,55.8
2022-09-06T11:49:58.787Z,56.5
2022-09-06T11:54:58.858Z,57.6
2022-09-06T11:59:58.756Z,55.8
2022-09-06T12:05:16.283Z,54.3
2022-09-06T12:10:00.229Z,52.7
2022-09-06T12:14:58.696Z,51.9
2022-09-06T12:19:58.513Z,49.9
2022-09-06T12:24:59.724Z,50.8
2022-09-06T12:29:58.656Z,50.5
2022-09-06T12:39:59.322Z,51.4
2022-09-06T12:44:58.843Z,48.1
2022-09-06T12:50:06.827Z,46.6
2022-09-06T12:54:58.795Z,45.4
2022-09-06T12:59:58.898Z,43.5
2022-09-06T13:04:58.665Z,44.5
2022-09-06T13:09:59.128Z,42.6
2022-09-06T13:14:58.626Z,43.5
2022-09-06T13:19:58.722Z,39.2
2022-09-06T13:24:58.747Z,38.9
2022-09-06T13:29:59.596Z,37
2022-09-06T13:34:58.478Z,34.4
2022-09-06T13:39:58.717Z,37.2
2022-09-06T13:45:14.372Z,39.5
2022-09-06T13:49:58.550Z,36.7
2022-09-06T13:54:58.644Z,36.5
2022-09-06T13:59:58.835Z,38
2022-09-06T14:04:58.670Z,36.6
2022-09-06T14:09:58.716Z,37.9
2022-09-06T14:14:58.506Z,41.2
2022-09-06T14:19:58.802Z,40.5
2022-09-06T14:24:58.642Z,39.2
2022-09-06T14:29:59.016Z,39.5
2022-09-06T14:34:58.552Z,42.3
2022-09-06T14:39:58.875Z,41.3
2022-09-06T14:44:58.475Z,40.6
2022-09-06T14:49:58.772Z,41.2
2022-09-06T14:54:58.792Z,38.1
2022-09-06T14:59:58.494Z,37.8
2022-09-06T15:04:58.522Z,40.8
2022-09-06T15:09:58.957Z,38.8
2022-09-06T15:14:58.469Z,41.5
2022-09-06T15:19:58.624Z,42.6
2022-09-06T15:24:58.671Z,42.5
2022-09-06T15:29:59.016Z,41.7
2022-09-06T15:35:03.806Z,37.5
2022-09-06T15:39:58.872Z,36.1
2022-09-06T15:44:58.746Z,37
2022-09-06T15:49:58.648Z,39.3
2022-09-06T15:54:58.477Z,39.8
2022-09-06T15:59:58.749Z,42.2
2022-09-06T16:04:58.541Z,44.4
2022-09-06T16:09:58.741Z,43.7
2022-09-06T16:14:58.472Z,44.3
2022-09-06T16:19:58.672Z,45.2
2022-09-06T16:24:58.672Z,43.7
2022-09-06T16:29:58.768Z,45.1
2022-09-06T16:34:58.327Z,44.3
2022-09-06T16:39:58.518Z,44.9
2022-09-06T16:44:58.611Z,45.2
2022-09-06T16:49:58.661Z,45.1
2022-09-06T16:54:58.519Z,45.6
2022-09-06T16:59:58.707Z,47.2
2022-09-06T17:04:58.616Z,46.7
2022-09-06T17:09:59.364Z,48.6
2022-09-06T17:14:58.289Z,47.9
2022-09-06T17:19:58.286Z,47.9
2022-09-06T17:24:58.767Z,43.7
2022-09-06T17:29:58.502Z,45.9
2022-09-06T17:34:58.394Z,45.7
2022-09-06T17:39:58.629Z,46.4
2022-09-06T17:44:58.472Z,47.8
2022-09-06T17:49:58.351Z,48.5
2022-09-06T17:54:58.539Z,49.4
2022-09-06T17:59:58.588Z,50.1
2022-09-06T18:04:58.715Z,50.2
2022-09-06T18:09:58.818Z,50.6
2022-09-06T18:14:58.466Z,51.3
2022-09-06T18:19:58.661Z,51.2
2022-09-06T18:24:58.554Z,51.2
2022-09-06T18:29:58.724Z,51
2022-09-06T18:34:58.253Z,51.5
2022-09-06T18:39:58.728Z,51.2
2022-09-06T18:44:58.367Z,52.2
2022-09-06T18:49:58.502Z,53.5
2022-09-06T18:54:58.451Z,54
2022-09-06T18:59:58.319Z,55.4
2022-09-06T19:04:58.588Z,58
2022-09-06T19:10:00.636Z,59.8
2022-09-06T19:15:00.279Z,61.2
2022-09-06T19:20:00.767Z,61.9
2022-09-06T19:25:00.579Z,61.4
2022-09-06T19:30:00.619Z,60.9
2022-09-06T19:35:00.539Z,59.8
2022-09-06T19:40:00.679Z,57.1
2022-09-06T19:45:00.205Z,55.8
2022-09-06T19:50:00.476Z,55.6
2022-09-06T19:55:00.780Z,57.2
2022-09-06T20:00:00.315Z,58
2022-09-06T20:05:00.536Z,58.8
2022-09-06T20:10:00.476Z,59.5
2022-09-06T20:15:00.389Z,59.5
2022-09-06T20:20:00.461Z,59.9
2022-09-06T20:25:00.714Z,60.9
2022-09-06T20:30:00.609Z,61.4
2022-09-06T20:35:00.468Z,61.3
2022-09-06T20:40:00.584Z,62
2022-09-06T20:45:00.145Z,62
2022-09-06T20:50:00.574Z,64.7
2022-09-06T20:55:00.237Z,67.1
2022-09-06T21:00:00.328Z,67.7
2022-09-06T21:05:00.307Z,68.7
2022-09-06T21:10:00.258Z,69.4
2022-09-06T21:15:00.417Z,68.6
2022-09-06T21:20:00.362Z,68.7
2022-09-06T21:25:00.139Z,68.5
2022-09-06T21:30:00.380Z,68.7
2022-09-06T21:35:00.332Z,68.1
2022-09-06T21:40:00.469Z,70.5
2022-09-06T21:45:00.573Z,70.5
2022-09-06T21:50:00.485Z,70.2
2022-09-06T21:55:00.430Z,70.6
2022-09-06T22:00:00.496Z,72.7
2022-09-06T22:05:00.438Z,73.6
2022-09-06T22:10:00.360Z,79.3
2022-09-06T22:15:00.104Z,85.1
2022-09-06T22:20:00.159Z,84.5
2022-09-06T22:25:00.065Z,89.9
2022-09-06T22:30:00.523Z,40
2022-09-06T22:35:00.246Z,43
2022-09-06T22:40:00.457Z,44
2022-09-06T22:45:00.088Z,45
2022-09-06T22:50:00.403Z,46
2022-09-06T22:55:00.121Z,47
2022-09-06T23:00:00.178Z,47
2022-09-06T23:05:00.388Z,48
2022-09-06T23:10:00.318Z,48
2022-09-06T23:14:59.947Z,49
2022-09-06T23:19:59.999Z,49
2022-09-06T23:25:00.021Z,50
2022-09-06T23:30:01.098Z,50
2022-09-06T23:34:59.938Z,51
2022-09-06T23:40:00.344Z,52
2022-09-06T23:45:00.297Z,53
2022-09-06T23:49:59.997Z,53
2022-09-06T23:55:00.351Z,54
